createdAt,value
2023-03-12T00:01:23.990Z,1.59
2023-03-12T00:03:51.467Z,1.62
2023-03-12T00:06:19.061Z,1.61
2023-03-12T00:08:45.745Z,1.62
2023-03-12T00:11:19.952Z,1.61
2023-03-12T00:13:53.770Z,1.61
2023-03-12T00:16:20.863Z,1.60
2023-03-12T00:18:49.833Z,1.57
2023-03-12T00:21:16.418Z,1.53
2023-03-12T00:23:43.271Z,1.50
2023-03-12T00:26:12.470Z,1.45
2023-03-12T00:28:39.722Z,1.41
2023-03-12T00:31:21.628Z,1.35
2023-03-12T00:33:48.451Z,1.34
2023-03-12T00:36:14.976Z,1.30
2023-03-12T00:38:41.503Z,1.26
2023-03-12T00:41:08.117Z,1.24
2023-03-12T00:43:34.668Z,1.21
2023-03-12T00:46:01.320Z,1.18
2023-03-12T00:48:27.877Z,1.16
2023-03-12T00:50:54.415Z,1.12
2023-03-12T00:53:21.044Z,1.12
2023-03-12T00:55:47.693Z,1.12
2023-03-12T00:58:14.624Z,1.14
2023-03-12T01:00:41.148Z,1.18
2023-03-12T01:03:07.823Z,1.20
2023-03-12T01:05:35.213Z,1.23
2023-03-12T01:08:01.816Z,1.23
2023-03-12T01:10:28.414Z,1.25
2023-03-12T01:12:54.950Z,1.24
2023-03-12T01:15:21.777Z,1.25
2023-03-12T01:17:48.597Z,1.23
2023-03-12T01:20:15.470Z,1.22
2023-03-12T01:22:42.264Z,1.20
2023-03-12T01:25:09.140Z,1.17
2023-03-12T01:27:35.716Z,1.15
2023-03-12T01:30:03.191Z,1.13
2023-03-12T01:32:29.822Z,1.08
2023-03-12T01:34:58.680Z,1.05
2023-03-12T01:37:25.157Z,1.02
2023-03-12T01:39:51.724Z,1.01
2023-03-12T01:42:18.332Z,1.02
2023-03-12T01:44:49.207Z,1.03
2023-03-12T01:47:15.765Z,1.06
2023-03-12T01:49:42.393Z,1.09
2023-03-12T01:52:13.743Z,1.11
2023-03-12T01:54:57.766Z,1.15
2023-03-12T01:57:34.462Z,1.18
2023-03-12T02:00:08.033Z,1.23
2023-03-12T02:02:41.049Z,1.26
2023-03-12T02:05:16.754Z,1.25
2023-03-12T02:07:43.495Z,1.33
2023-03-12T02:10:10.873Z,1.40
2023-03-12T02:12:37.369Z,1.45
2023-03-12T02:15:04.593Z,1.52
2023-03-12T02:17:32.046Z,1.56
2023-03-12T02:20:04.561Z,1.60
2023-03-12T02:22:31.639Z,1.66
2023-03-12T02:25:04.600Z,1.70
2023-03-12T02:27:37.404Z,1.74
2023-03-12T02:30:05.305Z,1.77
2023-03-12T02:32:39.390Z,1.79
2023-03-12T02:35:06.875Z,1.78
2023-03-12T02:37:33.378Z,1.76
2023-03-12T02:40:37.891Z,1.70
2023-03-12T02:43:07.599Z,1.69
2023-03-12T02:45:36.964Z,1.66
2023-03-12T02:48:08.562Z,1.61
2023-03-12T02:50:35.581Z,1.56
2023-03-12T02:53:03.259Z,1.52
2023-03-12T02:55:30.263Z,1.49
2023-03-12T02:57:57.092Z,1.44
2023-03-12T03:00:23.642Z,1.42
2023-03-12T03:02:52.618Z,1.41
2023-03-12T03:05:19.169Z,1.37
2023-03-12T03:07:46.085Z,1.36
2023-03-12T03:10:12.738Z,1.36
2023-03-12T03:12:39.476Z,1.34
2023-03-12T03:15:07.874Z,1.32
2023-03-12T03:17:34.506Z,1.30
2023-03-12T03:20:01.159Z,1.30
2023-03-12T03:22:27.957Z,1.29
2023-03-12T03:24:54.562Z,1.30
2023-03-12T03:27:21.225Z,1.32
2023-03-12T03:32:15.868Z,1.30
2023-03-12T03:34:42.491Z,1.36
2023-03-12T03:37:09.350Z,1.40
2023-03-12T03:39:36.653Z,1.43
2023-03-12T03:42:03.338Z,1.44
2023-03-12T03:44:32.636Z,1.49
2023-03-12T03:47:00.365Z,1.51
2023-03-12T03:49:26.970Z,1.55
2023-03-12T03:51:53.569Z,1.59
2023-03-12T03:54:27.453Z,1.61
2023-03-12T03:56:53.937Z,1.67
2023-03-12T03:59:20.884Z,1.72
2023-03-12T04:01:48.232Z,1.77
2023-03-12T04:04:15.295Z,1.81
2023-03-12T04:06:41.864Z,1.88
2023-03-12T04:09:08.802Z,1.94
2023-03-12T04:11:37.652Z,1.99
2023-03-12T04:14:05.885Z,2.04
2023-03-12T04:16:33.970Z,2.09
2023-03-12T04:19:01.786Z,2.13
2023-03-12T04:21:28.581Z,2.20
2023-03-12T04:23:55.230Z,2.25
2023-03-12T04:26:25.397Z,2.30
2023-03-12T04:28:53.502Z,2.34
2023-03-12T04:31:20.051Z,2.39
2023-03-12T04:33:50.878Z,2.42
2023-03-12T04:36:19.458Z,2.46
2023-03-12T04:38:48.560Z,2.49
2023-03-12T04:41:18.263Z,2.53
2023-03-12T04:43:49.612Z,2.56
2023-03-12T04:46:17.663Z,2.53
2023-03-12T04:48:44.785Z,2.60
2023-03-12T04:51:12.686Z,2.63
2023-03-12T04:53:39.510Z,2.66
2023-03-12T04:56:08.394Z,2.69
2023-03-12T04:58:41.170Z,2.71
2023-03-12T05:01:07.725Z,2.75
2023-03-12T05:03:35.307Z,2.77
2023-03-12T05:06:02.216Z,2.80
2023-03-12T05:08:30.059Z,2.81
2023-03-12T05:10:56.949Z,2.84
2023-03-12T05:13:23.457Z,2.86
2023-03-12T05:15:54.230Z,2.90
2023-03-12T05:18:21.874Z,2.92
2023-03-12T05:21:04.192Z,2.92
2023-03-12T05:23:31.649Z,2.92
2023-03-12T05:25:58.653Z,2.93
2023-03-12T05:28:25.445Z,2.95
2023-03-12T05:30:51.997Z,2.94
2023-03-12T05:33:18.608Z,2.93
2023-03-12T05:35:45.296Z,2.92
2023-03-12T05:38:11.828Z,2.92
2023-03-12T05:40:38.330Z,2.92
2023-03-12T05:43:04.990Z,2.93
2023-03-12T05:45:33.395Z,2.94
2023-03-12T05:48:00.252Z,2.95
2023-03-12T05:50:28.657Z,2.95
2023-03-12T05:52:55.239Z,2.97
2023-03-12T05:55:21.818Z,2.97
2023-03-12T05:57:48.510Z,3.01
2023-03-12T06:00:15.532Z,3.03
2023-03-12T06:02:48.303Z,3.07
2023-03-12T06:05:14.952Z,3.11
2023-03-12T06:07:41.553Z,3.14
2023-03-12T06:10:08.838Z,3.20
2023-03-12T06:12:35.606Z,3.25
2023-03-12T06:15:02.915Z,3.33
2023-03-12T06:17:30.629Z,3.41
2023-03-12T06:19:57.302Z,3.52
2023-03-12T06:22:24.266Z,3.61
2023-03-12T06:24:50.879Z,3.72
2023-03-12T06:27:18.476Z,3.80
2023-03-12T06:29:45.145Z,3.91
2023-03-12T06:32:11.650Z,4.02
2023-03-12T06:34:38.141Z,4.11
2023-03-12T06:37:04.756Z,4.17
2023-03-12T06:39:31.198Z,4.25
2023-03-12T06:41:57.733Z,4.30
2023-03-12T06:44:24.206Z,4.39
2023-03-12T06:46:50.817Z,4.45
2023-03-12T06:49:17.382Z,4.54
2023-03-12T06:51:43.849Z,4.58
2023-03-12T06:54:10.397Z,4.65
2023-03-12T06:56:36.957Z,4.72
2023-03-12T06:59:03.530Z,4.80
2023-03-12T07:01:30.073Z,4.84
2023-03-12T07:03:56.599Z,4.88
2023-03-12T07:06:24.527Z,4.93
2023-03-12T07:08:52.302Z,4.97
2023-03-12T07:11:18.784Z,4.99
2023-03-12T07:13:45.593Z,5.06
2023-03-12T07:16:12.456Z,5.11
2023-03-12T07:18:39.084Z,5.16
2023-03-12T07:21:05.788Z,5.19
2023-03-12T07:23:32.350Z,5.24
2023-03-12T07:25:58.829Z,5.25
2023-03-12T07:28:25.302Z,5.31
2023-03-12T07:30:51.840Z,5.35
2023-03-12T07:33:21.297Z,5.39
2023-03-12T07:35:51.550Z,5.45
2023-03-12T07:38:18.621Z,5.50
2023-03-12T07:40:45.326Z,5.55
2023-03-12T07:43:11.812Z,5.60
2023-03-12T07:45:40.983Z,5.67
2023-03-12T07:48:08.217Z,5.72
2023-03-12T07:50:36.008Z,5.77
2023-03-12T07:53:02.963Z,5.83
2023-03-12T07:55:29.501Z,5.93
2023-03-12T07:57:56.183Z,6.01
2023-03-12T08:00:22.899Z,6.09
2023-03-12T08:02:50.233Z,6.17
2023-03-12T08:05:16.964Z,6.26
2023-03-12T08:07:44.074Z,6.29
2023-03-12T08:10:12.259Z,6.37
2023-03-12T08:12:38.740Z,6.45
2023-03-12T08:15:07.439Z,6.52
2023-03-12T08:17:34.006Z,6.54
2023-03-12T08:20:00.640Z,6.53
2023-03-12T08:22:27.280Z,6.60
2023-03-12T08:24:53.879Z,6.64
2023-03-12T08:27:20.464Z,6.68
2023-03-12T08:29:47.038Z,6.72
2023-03-12T08:32:13.727Z,6.77
2023-03-12T08:34:40.284Z,6.84
2023-03-12T08:37:06.998Z,6.89
2023-03-12T08:39:33.958Z,6.95
2023-03-12T08:42:00.750Z,7.04
2023-03-12T08:44:27.612Z,7.10
2023-03-12T08:46:54.408Z,7.13
2023-03-12T08:49:21.801Z,7.19
2023-03-12T08:51:48.623Z,7.29
2023-03-12T08:54:15.201Z,7.35
2023-03-12T08:56:41.931Z,7.41
2023-03-12T08:59:12.042Z,7.49
2023-03-12T09:01:42.304Z,7.51
2023-03-12T09:04:10.400Z,7.57
2023-03-12T09:06:37.077Z,7.62
2023-03-12T09:09:03.762Z,7.69
2023-03-12T09:11:34.959Z,7.74
2023-03-12T09:16:49.611Z,7.92
2023-03-12T09:19:16.175Z,8.02
2023-03-12T09:21:42.705Z,8.11
2023-03-12T09:24:11.217Z,8.17
2023-03-12T09:26:37.679Z,8.19
2023-03-12T09:29:04.222Z,8.22
2023-03-12T09:31:31.159Z,8.27
2023-03-12T09:33:57.615Z,8.33
2023-03-12T09:36:24.340Z,8.41
2023-03-12T09:38:50.842Z,8.45
2023-03-12T09:41:25.080Z,8.44
2023-03-12T09:44:03.581Z,8.49
2023-03-12T09:46:44.847Z,8.50
2023-03-12T09:49:18.367Z,8.51
2023-03-12T09:51:49.445Z,8.49
2023-03-12T09:54:29.344Z,8.50
2023-03-12T09:57:00.506Z,8.47
2023-03-12T09:59:27.219Z,8.46
2023-03-12T10:01:59.015Z,8.49
2023-03-12T10:04:59.416Z,8.47
2023-03-12T10:07:26.663Z,8.47
2023-03-12T10:10:02.163Z,8.44
2023-03-12T10:12:46.259Z,8.38
2023-03-12T10:15:24.522Z,8.35
2023-03-12T10:18:03.089Z,8.24
2023-03-12T10:20:32.645Z,8.25
2023-03-12T10:23:20.742Z,8.20
2023-03-12T10:26:05.624Z,8.22
2023-03-12T10:28:41.080Z,8.23
2023-03-12T10:31:16.054Z,8.25
2023-03-12T10:33:49.730Z,8.29
2023-03-12T10:36:39.694Z,8.40
2023-03-12T10:39:17.777Z,8.44
2023-03-12T10:41:45.908Z,8.44
2023-03-12T10:44:22.488Z,8.55
2023-03-12T10:46:58.382Z,8.55
2023-03-12T10:49:31.096Z,8.51
2023-03-12T10:52:06.409Z,8.52
2023-03-12T10:54:34.876Z,8.53
2023-03-12T10:57:01.777Z,8.54
2023-03-12T10:59:34.979Z,8.54
2023-03-12T11:02:03.188Z,8.52
2023-03-12T11:04:32.154Z,8.50
2023-03-12T11:07:25.253Z,8.47
2023-03-12T11:10:17.908Z,8.43
2023-03-12T11:12:58.065Z,8.40
2023-03-12T11:15:40.084Z,8.38
2023-03-12T11:18:21.678Z,8.34
2023-03-12T11:20:54.160Z,8.31
2023-03-12T11:23:24.994Z,8.28
2023-03-12T11:26:00.211Z,8.26
2023-03-12T11:28:39.538Z,8.22
2023-03-12T11:31:15.772Z,8.21
2023-03-12T11:33:42.471Z,8.20
2023-03-12T11:36:22.107Z,8.22
2023-03-12T11:39:02.349Z,8.22
2023-03-12T11:41:48.987Z,8.23
2023-03-12T11:44:41.249Z,8.25
2023-03-12T11:47:47.414Z,8.28
2023-03-12T11:50:37.770Z,8.35
2023-03-12T11:53:12.870Z,8.38
2023-03-12T11:55:56.514Z,8.39
2023-03-12T11:58:53.552Z,8.41
2023-03-12T12:01:33.949Z,8.44
2023-03-12T12:04:46.177Z,8.49
2023-03-12T12:07:21.993Z,8.56
2023-03-12T12:09:48.575Z,8.60
2023-03-12T12:12:24.874Z,8.63
2023-03-12T12:15:10.689Z,8.66
2023-03-12T12:17:45.093Z,8.69
2023-03-12T12:20:20.911Z,8.72
2023-03-12T12:23:13.560Z,8.74
2023-03-12T12:26:04.645Z,8.77
2023-03-12T12:29:08.486Z,8.84
2023-03-12T12:31:48.037Z,8.88
2023-03-12T12:34:33.878Z,8.91
2023-03-12T12:37:41.476Z,8.95
2023-03-12T12:40:28.049Z,8.99
2023-03-12T12:43:14.723Z,9.04
2023-03-12T12:45:42.322Z,9.10
2023-03-12T12:48:22.529Z,9.14
2023-03-12T12:50:52.048Z,9.18
2023-03-12T12:53:33.384Z,9.24
2023-03-12T12:56:08.704Z,9.30
2023-03-12T12:58:55.134Z,9.33
2023-03-12T13:01:21.735Z,9.37
2023-03-12T13:03:49.884Z,9.39
2023-03-12T13:06:16.565Z,9.39
2023-03-12T13:08:42.965Z,9.40
2023-03-12T13:11:19.760Z,9.39
2023-03-12T13:13:51.109Z,9.38
2023-03-12T13:16:43.020Z,9.38
2023-03-12T13:19:15.746Z,9.40
2023-03-12T13:22:15.361Z,9.40
2023-03-12T13:25:00.159Z,9.44
2023-03-12T13:27:45.906Z,9.47
2023-03-12T13:30:33.525Z,9.49
2023-03-12T13:33:00.064Z,9.51
2023-03-12T13:35:26.486Z,9.60
2023-03-12T13:37:53.011Z,9.70
2023-03-12T13:40:31.599Z,9.75
2023-03-12T13:43:16.247Z,9.86
2023-03-12T13:46:06.945Z,9.98
2023-03-12T13:48:35.904Z,10.09
2023-03-12T13:51:18.102Z,10.13
2023-03-12T13:53:49.858Z,10.21
2023-03-12T13:56:24.991Z,10.24
2023-03-12T13:59:00.369Z,10.23
2023-03-12T14:01:31.342Z,10.31
2023-03-12T14:04:05.782Z,10.34
2023-03-12T14:06:49.706Z,10.39
2023-03-12T14:09:40.301Z,10.48
2023-03-12T14:12:35.443Z,10.47
2023-03-12T14:15:14.323Z,10.56
2023-03-12T14:17:44.009Z,10.62
2023-03-12T14:20:21.317Z,10.66
2023-03-12T14:22:55.590Z,10.68
2023-03-12T14:25:26.317Z,10.72
2023-03-12T14:27:53.428Z,10.75
2023-03-12T14:30:24.475Z,10.79
2023-03-12T14:32:58.318Z,10.85
2023-03-12T14:35:31.023Z,10.89
2023-03-12T14:38:11.710Z,10.94
2023-03-12T14:40:43.070Z,10.98
2023-03-12T14:43:39.520Z,11.02
2023-03-12T14:46:15.144Z,11.10
2023-03-12T14:48:41.960Z,11.17
2023-03-12T14:51:08.558Z,11.22
2023-03-12T14:53:37.600Z,11.31
2023-03-12T14:56:21.578Z,11.36
2023-03-12T14:58:49.422Z,11.46
2023-03-12T15:01:21.128Z,11.57
2023-03-12T15:03:54.147Z,11.60
2023-03-12T15:06:36.840Z,11.64
2023-03-12T15:09:05.914Z,11.64
2023-03-12T15:11:35.971Z,11.61
2023-03-12T15:14:09.373Z,11.64
2023-03-12T15:16:36.088Z,11.61
2023-03-12T15:19:03.813Z,11.60
2023-03-12T15:21:34.535Z,11.53
2023-03-12T15:24:01.431Z,11.50
2023-03-12T15:26:31.848Z,11.46
2023-03-12T15:29:05.219Z,11.42
2023-03-12T15:31:45.836Z,11.39
2023-03-12T15:34:33.971Z,11.31
2023-03-12T15:37:25.214Z,11.22
2023-03-12T15:39:53.560Z,11.29
2023-03-12T15:42:23.947Z,11.19
2023-03-12T15:44:59.010Z,11.20
2023-03-12T15:47:29.056Z,11.28
2023-03-12T15:50:01.024Z,11.29
2023-03-12T15:52:30.940Z,11.33
2023-03-12T15:55:06.082Z,11.25
2023-03-12T15:57:34.074Z,11.33
2023-03-12T16:00:09.804Z,11.32
2023-03-12T16:02:39.293Z,11.32
2023-03-12T16:05:08.126Z,11.27
2023-03-12T16:07:34.704Z,11.27
2023-03-12T16:10:01.257Z,11.27
2023-03-12T16:12:27.900Z,11.25
2023-03-12T16:14:55.834Z,11.19
2023-03-12T16:17:23.079Z,11.16
2023-03-12T16:19:49.771Z,11.13
2023-03-12T16:22:16.392Z,11.06
2023-03-12T16:24:43.089Z,11.08
2023-03-12T16:27:18.006Z,11.08
2023-03-12T16:29:47.275Z,11.05
2023-03-12T16:32:17.249Z,11.01
2023-03-12T16:34:45.479Z,11.01
2023-03-12T16:37:12.638Z,10.94
2023-03-12T16:39:39.735Z,10.98
2023-03-12T16:42:15.400Z,10.98
2023-03-12T16:44:45.709Z,10.92
2023-03-12T16:47:13.564Z,10.88
2023-03-12T16:49:40.410Z,10.86
2023-03-12T16:52:18.711Z,10.83
2023-03-12T16:54:45.393Z,10.82
2023-03-12T16:57:32.415Z,10.77
2023-03-12T17:00:00.539Z,10.71
2023-03-12T17:02:27.006Z,10.61
2023-03-12T17:04:53.538Z,10.67
2023-03-12T17:07:20.149Z,10.65
2023-03-12T17:09:46.715Z,10.62
2023-03-12T17:12:28.328Z,10.47
2023-03-12T17:14:55.298Z,10.45
2023-03-12T17:17:21.789Z,10.39
2023-03-12T17:19:48.496Z,10.38
2023-03-12T17:22:15.978Z,10.36
2023-03-12T17:24:42.461Z,10.33
2023-03-12T17:27:09.084Z,10.32
2023-03-12T17:29:35.736Z,10.25
2023-03-12T17:32:02.248Z,10.20
2023-03-12T17:34:28.814Z,10.21
2023-03-12T17:36:55.310Z,10.15
2023-03-12T17:39:21.828Z,10.10
2023-03-12T17:41:48.505Z,9.98
2023-03-12T17:44:15.178Z,9.95
2023-03-12T17:46:56.581Z,9.93
2023-03-12T17:49:25.518Z,9.84
2023-03-12T17:51:52.078Z,9.78
2023-03-12T17:54:18.647Z,9.66
2023-03-12T17:56:45.164Z,9.67
2023-03-12T17:59:11.819Z,9.59
2023-03-12T18:01:38.336Z,9.54
2023-03-12T18:04:04.911Z,9.52
2023-03-12T18:06:31.670Z,9.46
2023-03-12T18:08:58.328Z,9.44
2023-03-12T18:11:24.976Z,9.42
2023-03-12T18:13:51.549Z,9.44
2023-03-12T18:16:18.241Z,9.46
2023-03-12T18:18:44.922Z,9.43
2023-03-12T18:21:11.454Z,9.44
2023-03-12T18:23:38.207Z,9.47
2023-03-12T18:26:05.380Z,9.46
2023-03-12T18:28:31.970Z,9.41
2023-03-12T18:30:58.603Z,9.45
2023-03-12T18:33:25.079Z,9.48
2023-03-12T18:35:54.236Z,9.50
2023-03-12T18:38:21.033Z,9.49
2023-03-12T18:40:47.731Z,9.49
2023-03-12T18:43:14.285Z,9.50
2023-03-12T18:45:42.224Z,9.47
2023-03-12T18:48:08.898Z,9.44
2023-03-12T18:50:35.334Z,9.40
2023-03-12T18:53:01.780Z,9.35
2023-03-12T18:55:28.237Z,9.34
2023-03-12T18:57:54.829Z,9.32
2023-03-12T19:00:21.486Z,9.30
2023-03-12T19:02:48.454Z,9.28
2023-03-12T19:05:16.145Z,9.25
2023-03-12T19:07:43.389Z,9.20
2023-03-12T19:10:11.031Z,9.22
2023-03-12T19:12:50.754Z,9.18
2023-03-12T19:15:18.955Z,9.15
2023-03-12T19:17:45.483Z,9.08
2023-03-12T19:20:12.833Z,9.06
2023-03-12T19:22:39.634Z,9.04
2023-03-12T19:25:06.437Z,9.03
2023-03-12T19:27:33.171Z,9.04
2023-03-12T19:29:59.682Z,9.03
2023-03-12T19:32:33.245Z,9.03
2023-03-12T19:35:10.199Z,9.03
2023-03-12T19:37:36.718Z,9.01
2023-03-12T19:40:04.142Z,9.01
2023-03-12T19:42:30.669Z,8.96
2023-03-12T19:44:57.153Z,8.97
2023-03-12T19:47:23.679Z,8.97
2023-03-12T19:49:50.202Z,8.96
2023-03-12T19:52:16.736Z,8.95
2023-03-12T19:54:49.104Z,8.94
2023-03-12T19:57:21.104Z,8.94
2023-03-12T19:59:47.653Z,8.91
2023-03-12T20:02:14.701Z,8.87
2023-03-12T20:04:41.208Z,8.85
2023-03-12T20:07:07.730Z,8.86
2023-03-12T20:09:34.476Z,8.85
2023-03-12T20:12:01.592Z,8.86
2023-03-12T20:14:28.299Z,8.85
2023-03-12T20:16:55.164Z,8.86
2023-03-12T20:19:21.762Z,8.86
2023-03-12T20:21:48.506Z,8.86
2023-03-12T20:24:15.073Z,8.86
2023-03-12T20:26:41.660Z,8.86
2023-03-12T20:29:08.321Z,8.87
2023-03-12T20:31:34.913Z,8.88
2023-03-12T20:34:01.669Z,8.87
2023-03-12T20:36:28.182Z,8.87
2023-03-12T20:38:54.805Z,8.85
2023-03-12T20:41:21.336Z,8.85
2023-03-12T20:43:47.811Z,8.82
2023-03-12T20:46:14.451Z,8.79
2023-03-12T20:48:40.976Z,8.76
2023-03-12T20:51:07.584Z,8.74
2023-03-12T20:53:34.054Z,8.73
2023-03-12T20:56:00.657Z,8.69
2023-03-12T20:58:27.288Z,8.68
2023-03-12T21:00:54.320Z,8.66
2023-03-12T21:03:21.004Z,8.65
2023-03-12T21:05:58.606Z,8.63
2023-03-12T21:08:27.177Z,8.61
2023-03-12T21:10:53.702Z,8.62
2023-03-12T21:13:22.299Z,8.61
2023-03-12T21:15:49.654Z,8.59
2023-03-12T21:18:17.096Z,8.59
2023-03-12T21:20:44.231Z,8.59
2023-03-12T21:23:11.643Z,8.59
2023-03-12T21:25:40.347Z,8.58
2023-03-12T21:28:09.053Z,8.59
2023-03-12T21:30:36.277Z,8.59
2023-03-12T21:33:03.211Z,8.59
2023-03-12T21:35:29.892Z,8.59
2023-03-12T21:37:56.455Z,8.60
2023-03-12T21:40:23.998Z,8.60
2023-03-12T21:42:50.534Z,8.61
2023-03-12T21:45:17.227Z,8.61
2023-03-12T21:47:43.732Z,8.62
2023-03-12T21:50:11.185Z,8.63
2023-03-12T21:52:37.978Z,8.63
2023-03-12T21:55:08.504Z,8.64
2023-03-12T21:57:35.476Z,8.61
2023-03-12T22:00:02.352Z,8.63
2023-03-12T22:02:30.890Z,8.62
2023-03-12T22:05:00.507Z,8.64
2023-03-12T22:07:29.788Z,8.64
2023-03-12T22:09:56.796Z,8.65
2023-03-12T22:12:23.421Z,8.63
2023-03-12T22:14:49.897Z,8.63
2023-03-12T22:17:16.584Z,8.64
2023-03-12T22:19:43.296Z,8.62
2023-03-12T22:22:09.958Z,8.62
2023-03-12T22:24:36.456Z,8.62
2023-03-12T22:27:03.158Z,8.62
2023-03-12T22:29:29.772Z,8.61
2023-03-12T22:31:56.238Z,8.61
2023-03-12T22:34:22.704Z,8.59
2023-03-12T22:36:49.256Z,8.60
2023-03-12T22:39:16.845Z,8.59
2023-03-12T22:41:43.458Z,8.59
2023-03-12T22:44:10.084Z,8.59
2023-03-12T22:46:36.946Z,8.58
2023-03-12T22:49:04.606Z,8.60
2023-03-12T22:51:33.601Z,8.60
2023-03-12T22:54:00.377Z,8.61
2023-03-12T22:56:27.448Z,8.61
2023-03-12T22:58:55.368Z,8.61
2023-03-12T23:01:23.174Z,8.64
2023-03-12T23:03:50.739Z,8.64
2023-03-12T23:06:26.154Z,8.64
2023-03-12T23:08:53.234Z,8.65
2023-03-12T23:11:20.074Z,8.65
2023-03-12T23:13:47.407Z,8.65
2023-03-12T23:16:19.613Z,8.64
2023-03-12T23:18:46.700Z,8.64
2023-03-12T23:21:17.021Z,8.62
2023-03-12T23:23:43.850Z,8.61
2023-03-12T23:26:19.493Z,8.58
2023-03-12T23:28:46.819Z,8.57
2023-03-12T23:31:14.707Z,8.54
2023-03-12T23:33:41.455Z,8.52
2023-03-12T23:36:17.613Z,8.49
2023-03-12T23:38:45.178Z,8.47
2023-03-12T23:41:14.858Z,8.44
2023-03-12T23:43:42.010Z,8.42
2023-03-12T23:46:09.866Z,8.39
2023-03-12T23:48:37.898Z,8.35
2023-03-12T23:51:07.009Z,8.30
2023-03-12T23:53:34.261Z,8.26
2023-03-12T23:56:02.389Z,8.21
2023-03-12T23:58:28.906Z,8.12
